createdAt,value
2019-06-10T00:02:04.170Z,2.50
2019-06-10T00:04:15.243Z,2.50
2019-06-10T00:06:26.187Z,2.70
2019-06-10T00:08:37.019Z,2.63
2019-06-10T00:10:47.865Z,2.70
2019-06-10T00:13:01.015Z,2.70
2019-06-10T00:15:11.828Z,2.50
2019-06-10T00:17:22.693Z,2.80
2019-06-10T00:19:33.498Z,2.60
2019-06-10T00:21:44.445Z,2.47
2019-06-10T00:23:55.265Z,2.40
2019-06-10T00:26:07.764Z,2.80
2019-06-10T00:28:18.824Z,2.30
2019-06-10T00:30:31.305Z,2.60
2019-06-10T00:32:42.298Z,2.33
2019-06-10T00:34:53.109Z,2.67
2019-06-10T00:37:06.326Z,2.57
2019-06-10T00:39:16.769Z,2.60
2019-06-10T00:41:27.601Z,2.57
2019-06-10T00:43:38.428Z,2.10
2019-06-10T00:45:51.318Z,2.70
2019-06-10T00:48:13.535Z,2.70
2019-06-10T00:50:14.920Z,2.40
2019-06-10T00:52:25.807Z,2.70
2019-06-10T00:54:37.004Z,2.40
2019-06-10T00:56:47.872Z,2.43
2019-06-10T00:59:01.047Z,2.37
2019-06-10T01:01:14.485Z,2.30
2019-06-10T01:03:24.298Z,2.27
2019-06-10T01:05:35.137Z,2.50
2019-06-10T01:07:46.001Z,2.30
2019-06-10T01:09:56.843Z,2.60
2019-06-10T01:12:08.983Z,2.57
2019-06-10T01:14:21.579Z,2.60
2019-06-10T01:16:32.775Z,2.80
2019-06-10T01:18:43.618Z,3.20
2019-06-10T01:20:54.440Z,3.23
2019-06-10T01:23:05.271Z,3.10
2019-06-10T01:25:16.201Z,2.97
2019-06-10T01:27:27.058Z,3.30
2019-06-10T01:29:37.900Z,2.87
2019-06-10T01:31:51.030Z,3.10
2019-06-10T01:34:01.592Z,3.00
2019-06-10T01:36:14.915Z,3.33
2019-06-10T01:38:25.154Z,3.47
2019-06-10T01:40:35.965Z,3.27
2019-06-10T01:42:46.799Z,3.20
2019-06-10T01:44:57.646Z,3.40
2019-06-10T01:47:08.761Z,3.13
2019-06-10T01:49:21.335Z,3.13
2019-06-10T01:51:32.344Z,3.07
2019-06-10T01:53:43.171Z,2.90
2019-06-10T01:55:54.009Z,2.63
2019-06-10T01:58:05.198Z,2.73
2019-06-10T02:00:23.293Z,2.80
2019-06-10T02:02:35.013Z,2.80
2019-06-10T02:04:44.194Z,3.33
2019-06-10T02:06:55.042Z,2.43
2019-06-10T02:09:06.565Z,2.97
2019-06-10T02:11:18.996Z,3.40
2019-06-10T02:13:32.773Z,3.60
2019-06-10T02:15:43.508Z,3.43
2019-06-10T02:17:54.349Z,4.03
2019-06-10T02:20:05.708Z,4.60
2019-06-10T02:22:17.940Z,4.10
2019-06-10T02:24:31.420Z,3.70
2019-06-10T02:26:42.043Z,2.93
2019-06-10T02:28:52.859Z,3.07
2019-06-10T02:31:04.056Z,3.07
2019-06-10T02:33:18.978Z,2.63
2019-06-10T02:35:43.023Z,2.50
2019-06-10T02:37:44.143Z,2.57
2019-06-10T02:39:54.159Z,2.73
2019-06-10T02:42:19.049Z,2.93
2019-06-10T02:44:33.149Z,2.50
2019-06-10T02:46:43.838Z,2.40
2019-06-10T02:48:54.985Z,2.73
2019-06-10T02:51:06.457Z,3.03
2019-06-10T02:53:19.255Z,2.80
2019-06-10T02:55:34.189Z,2.90
2019-06-10T02:57:44.865Z,3.23
2019-06-10T02:59:55.679Z,2.80
2019-06-10T03:02:06.522Z,2.77
2019-06-10T03:04:18.292Z,3.33
2019-06-10T03:06:38.490Z,3.40
2019-06-10T03:08:43.691Z,3.13
2019-06-10T03:10:54.985Z,2.77
2019-06-10T03:13:05.885Z,3.27
2019-06-10T03:15:17.884Z,3.00
2019-06-10T03:17:28.876Z,2.50
2019-06-10T03:19:46.966Z,2.90
2019-06-10T03:21:52.543Z,3.03
2019-06-10T03:24:03.355Z,3.90
2019-06-10T03:26:15.196Z,3.77
2019-06-10T03:28:26.330Z,3.40
2019-06-10T03:30:48.060Z,3.00
2019-06-10T03:32:50.025Z,3.80
2019-06-10T03:35:05.015Z,3.83
2019-06-10T03:37:13.581Z,4.27
2019-06-10T03:39:26.916Z,3.90
2019-06-10T03:41:37.271Z,3.13
2019-06-10T03:43:48.106Z,2.93
2019-06-10T03:45:58.919Z,3.20
2019-06-10T03:48:09.762Z,2.93
2019-06-10T03:50:23.959Z,3.40
2019-06-10T03:52:33.417Z,3.10
2019-06-10T03:54:44.231Z,3.70
2019-06-10T03:56:55.160Z,3.77
2019-06-10T03:59:06.014Z,3.57
2019-06-10T04:01:17.402Z,3.93
2019-06-10T04:03:29.376Z,3.37
2019-06-10T04:05:42.379Z,3.77
2019-06-10T04:07:53.052Z,3.40
2019-06-10T04:10:04.353Z,3.13
2019-06-10T04:12:15.183Z,3.73
2019-06-10T04:14:26.796Z,4.03
2019-06-10T04:16:38.769Z,4.10
2019-06-10T04:18:50.123Z,3.73
2019-06-10T04:21:03.945Z,4.20
2019-06-10T04:23:14.782Z,4.00
2019-06-10T04:25:29.173Z,4.43
2019-06-10T04:27:38.361Z,4.10
2019-06-10T04:29:49.189Z,3.63
2019-06-10T04:32:00.009Z,4.10
2019-06-10T04:34:12.505Z,4.13
2019-06-10T04:36:26.009Z,3.83
2019-06-10T04:38:36.267Z,3.60
2019-06-10T04:40:47.182Z,3.60
2019-06-10T04:42:58.039Z,4.30
2019-06-10T04:45:09.091Z,3.33
2019-06-10T04:47:21.289Z,3.73
2019-06-10T04:49:32.893Z,3.30
2019-06-10T04:51:43.811Z,3.47
2019-06-10T04:53:54.636Z,3.83
2019-06-10T04:56:05.478Z,3.60
2019-06-10T04:58:16.400Z,3.40
2019-06-10T05:00:28.790Z,3.80
2019-06-10T05:02:39.954Z,3.33
2019-06-10T05:04:53.059Z,4.00
2019-06-10T05:07:03.522Z,4.20
2019-06-10T05:09:14.340Z,4.47
2019-06-10T05:11:26.950Z,3.77
2019-06-10T05:13:37.899Z,3.83
2019-06-10T05:15:48.751Z,3.90
2019-06-10T05:17:59.569Z,3.87
2019-06-10T05:20:12.572Z,4.10
2019-06-10T05:22:25.465Z,4.30
2019-06-10T05:24:36.456Z,4.47
2019-06-10T05:26:47.285Z,4.20
2019-06-10T05:28:58.104Z,4.90
2019-06-10T05:31:08.948Z,5.23
2019-06-10T05:33:20.792Z,4.53
2019-06-10T05:35:33.921Z,3.83
2019-06-10T05:37:44.969Z,4.37
2019-06-10T05:39:55.812Z,3.70
2019-06-10T05:42:09.314Z,3.60
2019-06-10T05:44:22.699Z,4.40
2019-06-10T05:46:34.882Z,4.10
2019-06-10T05:48:45.841Z,5.03
2019-06-10T05:51:02.154Z,5.00
2019-06-10T05:53:09.520Z,4.37
2019-06-10T05:55:22.503Z,4.00
2019-06-10T05:57:35.160Z,3.63
2019-06-10T05:59:45.940Z,4.33
2019-06-10T06:01:56.802Z,3.33
2019-06-10T06:04:07.629Z,3.30
2019-06-10T06:06:18.487Z,3.67
2019-06-10T06:08:29.316Z,3.53
2019-06-10T06:10:42.446Z,3.10
2019-06-10T06:12:52.889Z,3.20
2019-06-10T06:15:04.123Z,3.07
2019-06-10T06:17:16.784Z,2.57
2019-06-10T06:19:28.204Z,2.67
2019-06-10T06:21:46.410Z,3.00
2019-06-10T06:23:52.829Z,3.40
2019-06-10T06:26:04.199Z,3.57
2019-06-10T06:28:16.292Z,3.90
2019-06-10T06:30:28.061Z,3.50
2019-06-10T06:32:39.015Z,3.70
2019-06-10T06:34:52.499Z,4.23
2019-06-10T06:37:02.907Z,4.10
2019-06-10T06:39:13.728Z,4.57
2019-06-10T06:41:24.552Z,5.60
2019-06-10T06:43:40.000Z,4.77
2019-06-10T06:45:48.132Z,5.00
2019-06-10T06:47:58.982Z,4.70
2019-06-10T06:50:13.050Z,4.33
2019-06-10T06:52:46.558Z,4.27
2019-06-10T06:54:38.121Z,4.60
2019-06-10T06:56:49.666Z,5.00
2019-06-10T06:59:02.530Z,4.40
2019-06-10T07:01:14.577Z,4.93
2019-06-10T07:03:25.865Z,4.17
2019-06-10T07:05:38.959Z,5.20
2019-06-10T07:07:52.743Z,4.93
2019-06-10T07:10:07.451Z,4.30
2019-06-10T07:12:23.009Z,5.33
2019-06-10T07:14:37.160Z,5.10
2019-06-10T07:16:46.940Z,4.40
2019-06-10T07:18:57.784Z,5.33
2019-06-10T07:21:08.733Z,4.70
2019-06-10T07:23:19.545Z,5.77
2019-06-10T07:25:34.145Z,5.17
2019-06-10T07:27:46.430Z,6.03
2019-06-10T07:29:56.062Z,5.70
2019-06-10T07:32:06.895Z,5.37
2019-06-10T07:34:17.762Z,4.47
2019-06-10T07:36:28.781Z,5.77
2019-06-10T07:38:41.852Z,4.50
2019-06-10T07:40:53.062Z,4.97
2019-06-10T07:43:04.231Z,4.87
2019-06-10T07:45:15.270Z,5.60
2019-06-10T07:47:26.086Z,6.00
2019-06-10T07:49:37.238Z,4.90
2019-06-10T07:51:48.313Z,5.10
2019-06-10T07:53:59.232Z,5.60
2019-06-10T07:56:12.629Z,5.20
2019-06-10T07:58:22.797Z,5.40
2019-06-10T08:00:36.250Z,5.30
2019-06-10T08:02:46.694Z,5.03
2019-06-10T08:04:57.669Z,5.17
2019-06-10T08:07:08.792Z,5.20
2019-06-10T08:09:19.641Z,5.20
2019-06-10T08:11:33.085Z,4.73
2019-06-10T08:13:46.122Z,4.83
2019-06-10T08:15:56.059Z,5.33
2019-06-10T08:18:06.915Z,4.37
2019-06-10T08:20:22.263Z,3.87
2019-06-10T08:22:37.447Z,4.83
2019-06-10T08:24:46.120Z,5.00
2019-06-10T08:26:56.962Z,3.60
2019-06-10T08:29:07.835Z,3.93
2019-06-10T08:31:18.678Z,3.40
2019-06-10T08:33:29.532Z,3.70
2019-06-10T08:35:49.504Z,3.50
2019-06-10T08:37:53.302Z,3.30
2019-06-10T08:40:05.237Z,3.20
2019-06-10T08:42:16.210Z,3.10
2019-06-10T08:44:27.183Z,3.60
2019-06-10T08:46:38.838Z,3.43
2019-06-10T08:48:52.349Z,2.53
2019-06-10T08:51:03.494Z,3.57
2019-06-10T08:53:18.151Z,4.03
2019-06-10T08:55:27.841Z,3.83
2019-06-10T08:57:42.442Z,3.70
2019-06-10T08:59:53.297Z,3.10
2019-06-10T09:02:04.305Z,3.73
2019-06-10T09:04:15.197Z,3.47
2019-06-10T09:06:28.180Z,3.43
2019-06-10T09:08:40.872Z,3.13
2019-06-10T09:10:54.915Z,3.73
2019-06-10T09:13:04.819Z,3.47
2019-06-10T09:15:16.061Z,3.70
2019-06-10T09:17:26.928Z,3.60
2019-06-10T09:19:38.585Z,3.07
2019-06-10T09:21:53.381Z,3.10
2019-06-10T09:24:04.048Z,3.43
2019-06-10T09:26:14.969Z,3.60
2019-06-10T09:28:25.844Z,3.10
2019-06-10T09:30:36.800Z,3.27
2019-06-10T09:32:51.385Z,3.63
2019-06-10T09:35:03.209Z,3.60
2019-06-10T09:37:13.301Z,3.13
2019-06-10T09:39:24.180Z,3.60
2019-06-10T09:41:40.072Z,3.90
2019-06-10T09:43:51.719Z,3.00
2019-06-10T09:46:03.486Z,3.20
2019-06-10T09:48:22.687Z,2.53
2019-06-10T09:50:41.236Z,3.10
2019-06-10T09:52:56.846Z,3.03
2019-06-10T09:55:05.252Z,3.37
2019-06-10T09:57:16.152Z,2.63
2019-06-10T09:59:27.001Z,2.47
2019-06-10T10:01:37.981Z,2.70
2019-06-10T10:03:53.904Z,2.10
2019-06-10T10:06:11.499Z,2.13
2019-06-10T10:08:16.529Z,1.87
2019-06-10T10:10:34.300Z,1.87
